Terminal Aerodrome Forecast
Issued by NWS Memphis, TN

Home | Current Version | Previous Version | Text Only | Print | Product List | Glossary On
Versions: 1 2 3 4 5 6 7 8 9 10 11 12 13 14 15 16 17 18 19 20 21 22
000
FTUS44 KMEG 051120
TAFMKL
TAF
KMKL 051120Z 0512/0612 01018G28KT 4SM -SN BR SCT007 OVC015
      TEMPO 0512/0514 1SM -SN BR BKN007 OVC015
     FM051400 01017G27KT 6SM -SN BR OVC015
     FM051600 01015G25KT P6SM OVC025
     FM051800 36013G20KT P6SM BKN028
     FM060000 02005KT P6SM SKC=

USA.gov is the U.S. government's official web portal to all federal, state and local government web resources and services.